sensor_id;sensor_type;location;lat;lon;timestamp;P1;durP1;ratioP1;P2;durP2;ratioP2
42000;SDS011;27689;48.390;10.856;2023-04-03T00:02:26;6.22;;;5.35;;
42000;SDS011;27689;48.390;10.856;2023-04-03T00:05:10;5.82;;;5.15;;
42000;SDS011;27689;48.390;10.856;2023-04-03T00:07:54;5.57;;;5.00;;
42000;SDS011;27689;48.390;10.856;2023-04-03T00:10:38;7.53;;;5.28;;
42000;SDS011;27689;48.390;10.856;2023-04-03T00:13:23;6.65;;;5.20;;
42000;SDS011;27689;48.390;10.856;2023-04-03T00:16:08;7.25;;;5.20;;
42000;SDS011;27689;48.390;10.856;2023-04-03T00:18:53;6.40;;;5.22;;
42000;SDS011;27689;48.390;10.856;2023-04-03T00:21:37;5.40;;;4.78;;
42000;SDS011;27689;48.390;10.856;2023-04-03T00:24:21;5.20;;;4.70;;
42000;SDS011;27689;48.390;10.856;2023-04-03T00:27:05;4.93;;;4.37;;
42000;SDS011;27689;48.390;10.856;2023-04-03T00:29:49;6.10;;;4.80;;
42000;SDS011;27689;48.390;10.856;2023-04-03T00:32:33;5.45;;;4.00;;
42000;SDS011;27689;48.390;10.856;2023-04-03T00:35:17;5.30;;;4.55;;
42000;SDS011;27689;48.390;10.856;2023-04-03T00:38:02;4.43;;;4.03;;
42000;SDS011;27689;48.390;10.856;2023-04-03T00:40:47;5.25;;;3.97;;
42000;SDS011;27689;48.390;10.856;2023-04-03T00:43:32;5.00;;;4.50;;
42000;SDS011;27689;48.390;10.856;2023-04-03T00:46:16;4.72;;;4.05;;
42000;SDS011;27689;48.390;10.856;2023-04-03T00:49:00;4.57;;;4.18;;
42000;SDS011;27689;48.390;10.856;2023-04-03T00:51:44;4.85;;;4.45;;
42000;SDS011;27689;48.390;10.856;2023-04-03T00:54:29;5.88;;;3.90;;
42000;SDS011;27689;48.390;10.856;2023-04-03T00:57:13;4.80;;;4.03;;
42000;SDS011;27689;48.390;10.856;2023-04-03T01:00:06;3.85;;;3.53;;
42000;SDS011;27689;48.390;10.856;2023-04-03T01:02:52;5.07;;;3.80;;
42000;SDS011;27689;48.390;10.856;2023-04-03T01:05:37;6.05;;;4.30;;
42000;SDS011;27689;48.390;10.856;2023-04-03T01:08:21;4.38;;;3.97;;
42000;SDS011;27689;48.390;10.856;2023-04-03T01:11:05;4.95;;;3.67;;
42000;SDS011;27689;48.390;10.856;2023-04-03T01:13:49;3.85;;;3.53;;
42000;SDS011;27689;48.390;10.856;2023-04-03T01:16:33;5.15;;;3.63;;
42000;SDS011;27689;48.390;10.856;2023-04-03T01:19:18;3.90;;;3.35;;
42000;SDS011;27689;48.390;10.856;2023-04-03T01:22:15;3.80;;;3.38;;
42000;SDS011;27689;48.390;10.856;2023-04-03T01:25:07;5.35;;;3.58;;
42000;SDS011;27689;48.390;10.856;2023-04-03T01:27:51;4.00;;;3.67;;
42000;SDS011;27689;48.390;10.856;2023-04-03T01:30:36;4.30;;;3.53;;
42000;SDS011;27689;48.390;10.856;2023-04-03T01:33:26;4.40;;;3.35;;
42000;SDS011;27689;48.390;10.856;2023-04-03T01:36:13;3.72;;;3.40;;
42000;SDS011;27689;48.390;10.856;2023-04-03T01:39:09;6.38;;;3.67;;
42000;SDS011;27689;48.390;10.856;2023-04-03T01:41:53;4.22;;;3.60;;
42000;SDS011;27689;48.390;10.856;2023-04-03T01:44:37;3.65;;;3.13;;
42000;SDS011;27689;48.390;10.856;2023-04-03T01:47:21;4.65;;;3.50;;
42000;SDS011;27689;48.390;10.856;2023-04-03T01:52:50;3.20;;;2.90;;
42000;SDS011;27689;48.390;10.856;2023-04-03T01:55:34;4.32;;;3.55;;
42000;SDS011;27689;48.390;10.856;2023-04-03T01:58:18;4.72;;;3.28;;
42000;SDS011;27689;48.390;10.856;2023-04-03T02:01:01;4.40;;;3.58;;
42000;SDS011;27689;48.390;10.856;2023-04-03T02:03:45;4.18;;;3.78;;
42000;SDS011;27689;48.390;10.856;2023-04-03T02:06:29;4.72;;;3.33;;
42000;SDS011;27689;48.390;10.856;2023-04-03T02:09:14;3.75;;;3.45;;
42000;SDS011;27689;48.390;10.856;2023-04-03T02:11:58;5.25;;;3.90;;
42000;SDS011;27689;48.390;10.856;2023-04-03T02:14:42;5.03;;;3.53;;
42000;SDS011;27689;48.390;10.856;2023-04-03T02:17:27;4.10;;;3.38;;
42000;SDS011;27689;48.390;10.856;2023-04-03T02:20:11;3.90;;;3.50;;
42000;SDS011;27689;48.390;10.856;2023-04-03T02:22:55;3.90;;;3.50;;
42000;SDS011;27689;48.390;10.856;2023-04-03T02:25:39;4.43;;;3.47;;
42000;SDS011;27689;48.390;10.856;2023-04-03T02:28:22;3.83;;;3.28;;
42000;SDS011;27689;48.390;10.856;2023-04-03T02:31:07;4.10;;;3.65;;
42000;SDS011;27689;48.390;10.856;2023-04-03T02:33:52;4.13;;;3.53;;
42000;SDS011;27689;48.390;10.856;2023-04-03T02:36:36;6.00;;;4.00;;
42000;SDS011;27689;48.390;10.856;2023-04-03T02:39:20;4.57;;;3.72;;
42000;SDS011;27689;48.390;10.856;2023-04-03T02:42:04;4.07;;;3.40;;
42000;SDS011;27689;48.390;10.856;2023-04-03T02:44:48;4.18;;;3.78;;
42000;SDS011;27689;48.390;10.856;2023-04-03T02:47:32;4.63;;;3.63;;
42000;SDS011;27689;48.390;10.856;2023-04-03T02:50:16;4.72;;;3.60;;
42000;SDS011;27689;48.390;10.856;2023-04-03T02:53:00;5.28;;;3.65;;
42000;SDS011;27689;48.390;10.856;2023-04-03T02:55:44;4.18;;;3.63;;
42000;SDS011;27689;48.390;10.856;2023-04-03T02:58:28;5.47;;;3.95;;
42000;SDS011;27689;48.390;10.856;2023-04-03T03:01:13;5.68;;;3.97;;
42000;SDS011;27689;48.390;10.856;2023-04-03T03:03:58;6.30;;;3.80;;
42000;SDS011;27689;48.390;10.856;2023-04-03T03:06:43;4.70;;;3.63;;
42000;SDS011;27689;48.390;10.856;2023-04-03T03:09:27;5.63;;;3.92;;
42000;SDS011;27689;48.390;10.856;2023-04-03T03:12:11;4.90;;;3.85;;
42000;SDS011;27689;48.390;10.856;2023-04-03T03:14:55;4.88;;;3.63;;
42000;SDS011;27689;48.390;10.856;2023-04-03T03:17:39;4.40;;;3.78;;
42000;SDS011;27689;48.390;10.856;2023-04-03T03:20:23;5.13;;;4.38;;
42000;SDS011;27689;48.390;10.856;2023-04-03T03:23:07;4.57;;;4.17;;
42000;SDS011;27689;48.390;10.856;2023-04-03T03:25:55;5.85;;;3.67;;
42000;SDS011;27689;48.390;10.856;2023-04-03T03:28:42;5.07;;;3.90;;
42000;SDS011;27689;48.390;10.856;2023-04-03T03:31:26;4.60;;;4.05;;
42000;SDS011;27689;48.390;10.856;2023-04-03T03:34:10;4.10;;;3.70;;
42000;SDS011;27689;48.390;10.856;2023-04-03T03:36:55;4.40;;;4.00;;
42000;SDS011;27689;48.390;10.856;2023-04-03T03:39:39;4.53;;;3.85;;
42000;SDS011;27689;48.390;10.856;2023-04-03T03:42:23;5.03;;;4.53;;
42000;SDS011;27689;48.390;10.856;2023-04-03T03:45:07;5.85;;;4.35;;
42000;SDS011;27689;48.390;10.856;2023-04-03T03:47:51;6.15;;;4.05;;
42000;SDS011;27689;48.390;10.856;2023-04-03T03:50:36;5.93;;;4.60;;
42000;SDS011;27689;48.390;10.856;2023-04-03T03:53:19;4.28;;;3.88;;
42000;SDS011;27689;48.390;10.856;2023-04-03T03:56:03;5.65;;;4.05;;
42000;SDS011;27689;48.390;10.856;2023-04-03T03:58:48;5.88;;;4.57;;
42000;SDS011;27689;48.390;10.856;2023-04-03T04:01:33;5.05;;;4.00;;
42000;SDS011;27689;48.390;10.856;2023-04-03T04:04:17;5.55;;;4.00;;
42000;SDS011;27689;48.390;10.856;2023-04-03T04:07:01;4.97;;;4.00;;
42000;SDS011;27689;48.390;10.856;2023-04-03T04:09:44;4.18;;;3.75;;
42000;SDS011;27689;48.390;10.856;2023-04-03T04:12:28;6.05;;;4.68;;
42000;SDS011;27689;48.390;10.856;2023-04-03T04:15:12;5.13;;;4.00;;
42000;SDS011;27689;48.390;10.856;2023-04-03T04:17:56;6.70;;;4.38;;
42000;SDS011;27689;48.390;10.856;2023-04-03T04:20:40;4.67;;;3.93;;
42000;SDS011;27689;48.390;10.856;2023-04-03T04:23:24;6.00;;;4.05;;
42000;SDS011;27689;48.390;10.856;2023-04-03T04:26:08;4.15;;;3.63;;
42000;SDS011;27689;48.390;10.856;2023-04-03T04:28:52;6.85;;;4.13;;
42000;SDS011;27689;48.390;10.856;2023-04-03T04:31:36;7.18;;;4.47;;
42000;SDS011;27689;48.390;10.856;2023-04-03T04:34:20;5.80;;;4.57;;
42000;SDS011;27689;48.390;10.856;2023-04-03T04:37:04;5.53;;;3.97;;
42000;SDS011;27689;48.390;10.856;2023-04-03T04:39:48;5.22;;;4.18;;
42000;SDS011;27689;48.390;10.856;2023-04-03T04:42:32;4.50;;;4.07;;
42000;SDS011;27689;48.390;10.856;2023-04-03T04:45:16;6.25;;;4.03;;
42000;SDS011;27689;48.390;10.856;2023-04-03T04:48:00;5.65;;;3.58;;
42000;SDS011;27689;48.390;10.856;2023-04-03T04:50:44;4.95;;;4.45;;
42000;SDS011;27689;48.390;10.856;2023-04-03T04:53:29;4.72;;;4.20;;
42000;SDS011;27689;48.390;10.856;2023-04-03T04:56:13;6.28;;;4.32;;
42000;SDS011;27689;48.390;10.856;2023-04-03T04:58:57;5.57;;;4.15;;
42000;SDS011;27689;48.390;10.856;2023-04-03T05:01:40;5.07;;;4.17;;
42000;SDS011;27689;48.390;10.856;2023-04-03T05:04:24;5.83;;;4.70;;
42000;SDS011;27689;48.390;10.856;2023-04-03T05:07:08;4.77;;;4.17;;
42000;SDS011;27689;48.390;10.856;2023-04-03T05:09:52;4.77;;;4.27;;
42000;SDS011;27689;48.390;10.856;2023-04-03T05:12:36;4.82;;;4.43;;
42000;SDS011;27689;48.390;10.856;2023-04-03T05:15:20;5.95;;;4.25;;
42000;SDS011;27689;48.390;10.856;2023-04-03T05:18:04;4.88;;;4.35;;
42000;SDS011;27689;48.390;10.856;2023-04-03T05:20:48;4.05;;;3.65;;
42000;SDS011;27689;48.390;10.856;2023-04-03T05:23:34;5.25;;;3.97;;
42000;SDS011;27689;48.390;10.856;2023-04-03T05:26:17;7.90;;;4.73;;
42000;SDS011;27689;48.390;10.856;2023-04-03T05:29:01;5.10;;;4.50;;
42000;SDS011;27689;48.390;10.856;2023-04-03T05:31:46;7.00;;;4.45;;
42000;SDS011;27689;48.390;10.856;2023-04-03T05:34:32;5.93;;;4.40;;
42000;SDS011;27689;48.390;10.856;2023-04-03T05:37:16;4.20;;;3.80;;
42000;SDS011;27689;48.390;10.856;2023-04-03T05:40:00;5.22;;;4.45;;
42000;SDS011;27689;48.390;10.856;2023-04-03T05:42:44;5.15;;;4.30;;
42000;SDS011;27689;48.390;10.856;2023-04-03T05:45:28;5.15;;;4.25;;
42000;SDS011;27689;48.390;10.856;2023-04-03T05:48:12;4.65;;;3.90;;
42000;SDS011;27689;48.390;10.856;2023-04-03T05:50:56;4.20;;;3.75;;
42000;SDS011;27689;48.390;10.856;2023-04-03T05:53:40;4.75;;;4.25;;
42000;SDS011;27689;48.390;10.856;2023-04-03T05:56:24;5.75;;;4.72;;
42000;SDS011;27689;48.390;10.856;2023-04-03T05:59:09;7.00;;;4.28;;
42000;SDS011;27689;48.390;10.856;2023-04-03T06:01:53;6.93;;;4.90;;
42000;SDS011;27689;48.390;10.856;2023-04-03T06:04:36;4.97;;;4.10;;
42000;SDS011;27689;48.390;10.856;2023-04-03T06:07:22;5.30;;;4.80;;
42000;SDS011;27689;48.390;10.856;2023-04-03T06:10:11;7.25;;;5.28;;
42000;SDS011;27689;48.390;10.856;2023-04-03T06:12:56;7.05;;;5.35;;
42000;SDS011;27689;48.390;10.856;2023-04-03T06:15:40;7.65;;;5.03;;
42000;SDS011;27689;48.390;10.856;2023-04-03T06:18:24;5.78;;;5.00;;
42000;SDS011;27689;48.390;10.856;2023-04-03T06:21:08;5.85;;;5.07;;
42000;SDS011;27689;48.390;10.856;2023-04-03T06:23:52;5.70;;;4.72;;
42000;SDS011;27689;48.390;10.856;2023-04-03T06:26:36;6.80;;;4.72;;
42000;SDS011;27689;48.390;10.856;2023-04-03T06:29:20;7.68;;;5.43;;
42000;SDS011;27689;48.390;10.856;2023-04-03T06:32:04;5.90;;;5.30;;
42000;SDS011;27689;48.390;10.856;2023-04-03T06:34:48;6.63;;;4.55;;
42000;SDS011;27689;48.390;10.856;2023-04-03T06:37:32;7.57;;;5.20;;
42000;SDS011;27689;48.390;10.856;2023-04-03T06:40:18;6.47;;;4.72;;
42000;SDS011;27689;48.390;10.856;2023-04-03T06:43:05;6.68;;;4.68;;
42000;SDS011;27689;48.390;10.856;2023-04-03T06:45:49;7.68;;;5.28;;
42000;SDS011;27689;48.390;10.856;2023-04-03T06:48:32;6.57;;;5.28;;
42000;SDS011;27689;48.390;10.856;2023-04-03T06:51:20;9.32;;;5.97;;
42000;SDS011;27689;48.390;10.856;2023-04-03T06:54:06;6.40;;;5.40;;
42000;SDS011;27689;48.390;10.856;2023-04-03T06:56:51;6.78;;;5.57;;
42000;SDS011;27689;48.390;10.856;2023-04-03T06:59:35;6.82;;;5.47;;
42000;SDS011;27689;48.390;10.856;2023-04-03T07:02:20;7.53;;;5.40;;
42000;SDS011;27689;48.390;10.856;2023-04-03T07:05:04;8.30;;;5.15;;
42000;SDS011;27689;48.390;10.856;2023-04-03T07:07:49;7.93;;;4.90;;
42000;SDS011;27689;48.390;10.856;2023-04-03T07:10:34;8.45;;;5.25;;
42000;SDS011;27689;48.390;10.856;2023-04-03T07:13:18;6.90;;;5.68;;
42000;SDS011;27689;48.390;10.856;2023-04-03T07:16:02;8.27;;;5.60;;
42000;SDS011;27689;48.390;10.856;2023-04-03T07:18:48;7.15;;;5.45;;
42000;SDS011;27689;48.390;10.856;2023-04-03T07:21:32;5.68;;;4.80;;
42000;SDS011;27689;48.390;10.856;2023-04-03T07:24:16;8.07;;;5.73;;
42000;SDS011;27689;48.390;10.856;2023-04-03T07:27:00;5.97;;;5.22;;
42000;SDS011;27689;48.390;10.856;2023-04-03T07:29:44;6.13;;;5.50;;
42000;SDS011;27689;48.390;10.856;2023-04-03T07:32:28;5.53;;;5.03;;
42000;SDS011;27689;48.390;10.856;2023-04-03T07:35:13;7.10;;;5.47;;
42000;SDS011;27689;48.390;10.856;2023-04-03T07:37:57;6.95;;;5.40;;
42000;SDS011;27689;48.390;10.856;2023-04-03T07:40:41;5.57;;;4.53;;
42000;SDS011;27689;48.390;10.856;2023-04-03T07:43:30;11.00;;;5.15;;
42000;SDS011;27689;48.390;10.856;2023-04-03T07:46:14;6.22;;;5.30;;
42000;SDS011;27689;48.390;10.856;2023-04-03T07:48:57;11.17;;;5.60;;
42000;SDS011;27689;48.390;10.856;2023-04-03T07:51:41;6.20;;;5.20;;
42000;SDS011;27689;48.390;10.856;2023-04-03T07:54:25;7.20;;;5.00;;
42000;SDS011;27689;48.390;10.856;2023-04-03T07:57:09;7.63;;;4.50;;
42000;SDS011;27689;48.390;10.856;2023-04-03T07:59:54;6.53;;;4.78;;
42000;SDS011;27689;48.390;10.856;2023-04-03T08:02:38;8.10;;;5.97;;
42000;SDS011;27689;48.390;10.856;2023-04-03T08:05:22;6.20;;;4.78;;
42000;SDS011;27689;48.390;10.856;2023-04-03T08:08:06;7.18;;;5.03;;
42000;SDS011;27689;48.390;10.856;2023-04-03T08:10:51;6.22;;;5.28;;
42000;SDS011;27689;48.390;10.856;2023-04-03T08:13:36;7.22;;;5.10;;
42000;SDS011;27689;48.390;10.856;2023-04-03T08:16:20;5.87;;;5.27;;
42000;SDS011;27689;48.390;10.856;2023-04-03T08:19:07;7.93;;;4.82;;
42000;SDS011;27689;48.390;10.856;2023-04-03T08:21:53;7.32;;;5.32;;
42000;SDS011;27689;48.390;10.856;2023-04-03T08:24:38;7.25;;;4.70;;
42000;SDS011;27689;48.390;10.856;2023-04-03T08:27:23;8.80;;;5.03;;
42000;SDS011;27689;48.390;10.856;2023-04-03T08:30:07;5.45;;;4.68;;
42000;SDS011;27689;48.390;10.856;2023-04-03T08:32:52;6.38;;;4.70;;
42000;SDS011;27689;48.390;10.856;2023-04-03T08:35:40;6.72;;;4.90;;
42000;SDS011;27689;48.390;10.856;2023-04-03T08:38:24;6.43;;;5.05;;
42000;SDS011;27689;48.390;10.856;2023-04-03T08:44:24;6.00;;;4.60;;
42000;SDS011;27689;48.390;10.856;2023-04-03T08:47:36;6.63;;;4.22;;
42000;SDS011;27689;48.390;10.856;2023-04-03T08:50:26;5.47;;;4.97;;
42000;SDS011;27689;48.390;10.856;2023-04-03T08:53:16;8.18;;;4.43;;
42000;SDS011;27689;48.390;10.856;2023-04-03T08:56:12;5.10;;;4.22;;
42000;SDS011;27689;48.390;10.856;2023-04-03T08:59:06;5.93;;;4.00;;
42000;SDS011;27689;48.390;10.856;2023-04-03T09:01:57;4.85;;;4.32;;
42000;SDS011;27689;48.390;10.856;2023-04-03T09:04:45;5.90;;;4.90;;
42000;SDS011;27689;48.390;10.856;2023-04-03T09:07:34;6.20;;;4.32;;
42000;SDS011;27689;48.390;10.856;2023-04-03T09:10:24;6.40;;;4.72;;
42000;SDS011;27689;48.390;10.856;2023-04-03T09:16:05;7.60;;;4.28;;
42000;SDS011;27689;48.390;10.856;2023-04-03T09:19:28;6.57;;;4.22;;
42000;SDS011;27689;48.390;10.856;2023-04-03T09:22:23;6.15;;;4.78;;
42000;SDS011;27689;48.390;10.856;2023-04-03T09:27:57;7.90;;;4.43;;
42000;SDS011;27689;48.390;10.856;2023-04-03T09:30:43;9.77;;;4.38;;
42000;SDS011;27689;48.390;10.856;2023-04-03T09:33:27;6.57;;;4.43;;
42000;SDS011;27689;48.390;10.856;2023-04-03T09:36:14;6.72;;;4.60;;
42000;SDS011;27689;48.390;10.856;2023-04-03T09:39:29;8.00;;;4.80;;
42000;SDS011;27689;48.390;10.856;2023-04-03T09:42:18;7.57;;;4.38;;
42000;SDS011;27689;48.390;10.856;2023-04-03T09:45:05;5.40;;;4.57;;
42000;SDS011;27689;48.390;10.856;2023-04-03T09:48:04;8.23;;;4.70;;
42000;SDS011;27689;48.390;10.856;2023-04-03T09:56:20;5.75;;;4.32;;
42000;SDS011;27689;48.390;10.856;2023-04-03T09:59:15;6.35;;;4.40;;
42000;SDS011;27689;48.390;10.856;2023-04-03T10:02:16;6.45;;;4.63;;
42000;SDS011;27689;48.390;10.856;2023-04-03T10:05:26;4.63;;;4.03;;
42000;SDS011;27689;48.390;10.856;2023-04-03T10:08:26;6.18;;;4.60;;
42000;SDS011;27689;48.390;10.856;2023-04-03T10:11:14;5.20;;;4.38;;
42000;SDS011;27689;48.390;10.856;2023-04-03T10:14:01;7.97;;;4.53;;
42000;SDS011;27689;48.390;10.856;2023-04-03T10:16:48;5.13;;;4.13;;
42000;SDS011;27689;48.390;10.856;2023-04-03T10:32:11;5.68;;;4.32;;
42000;SDS011;27689;48.390;10.856;2023-04-03T10:35:12;7.28;;;4.93;;
42000;SDS011;27689;48.390;10.856;2023-04-03T10:38:08;4.68;;;4.15;;
42000;SDS011;27689;48.390;10.856;2023-04-03T10:41:02;5.65;;;4.22;;
42000;SDS011;27689;48.390;10.856;2023-04-03T10:49:56;5.75;;;4.10;;
42000;SDS011;27689;48.390;10.856;2023-04-03T10:53:05;7.05;;;4.55;;
42000;SDS011;27689;48.390;10.856;2023-04-03T10:56:10;6.97;;;4.25;;
42000;SDS011;27689;48.390;10.856;2023-04-03T11:02:14;6.43;;;3.88;;
42000;SDS011;27689;48.390;10.856;2023-04-03T11:05:30;7.10;;;4.05;;
42000;SDS011;27689;48.390;10.856;2023-04-03T11:08:33;4.55;;;3.75;;
42000;SDS011;27689;48.390;10.856;2023-04-03T11:11:22;5.70;;;4.32;;
42000;SDS011;27689;48.390;10.856;2023-04-03T11:17:15;6.85;;;4.18;;
42000;SDS011;27689;48.390;10.856;2023-04-03T11:26:23;7.78;;;4.57;;
42000;SDS011;27689;48.390;10.856;2023-04-03T11:29:13;8.90;;;3.45;;
42000;SDS011;27689;48.390;10.856;2023-04-03T11:32:16;4.35;;;3.60;;
42000;SDS011;27689;48.390;10.856;2023-04-03T11:35:10;4.93;;;4.18;;
42000;SDS011;27689;48.390;10.856;2023-04-03T11:37:56;5.25;;;3.75;;
42000;SDS011;27689;48.390;10.856;2023-04-03T11:40:43;5.13;;;3.95;;
42000;SDS011;27689;48.390;10.856;2023-04-03T11:43:29;4.78;;;3.65;;
42000;SDS011;27689;48.390;10.856;2023-04-03T11:46:15;6.32;;;4.18;;
42000;SDS011;27689;48.390;10.856;2023-04-03T11:49:02;5.82;;;3.83;;
42000;SDS011;27689;48.390;10.856;2023-04-03T11:51:46;4.85;;;3.65;;
42000;SDS011;27689;48.390;10.856;2023-04-03T11:55:35;7.35;;;4.22;;
42000;SDS011;27689;48.390;10.856;2023-04-03T12:01:07;10.98;;;3.58;;
42000;SDS011;27689;48.390;10.856;2023-04-03T12:04:05;4.45;;;3.78;;
42000;SDS011;27689;48.390;10.856;2023-04-03T12:10:13;6.28;;;3.25;;
42000;SDS011;27689;48.390;10.856;2023-04-03T12:13:00;11.85;;;3.72;;
42000;SDS011;27689;48.390;10.856;2023-04-03T12:15:47;4.55;;;2.78;;
42000;SDS011;27689;48.390;10.856;2023-04-03T12:24:34;4.05;;;3.25;;
42000;SDS011;27689;48.390;10.856;2023-04-03T12:27:33;5.25;;;3.15;;
42000;SDS011;27689;48.390;10.856;2023-04-03T12:30:23;7.45;;;3.47;;
42000;SDS011;27689;48.390;10.856;2023-04-03T12:36:39;4.97;;;2.80;;
42000;SDS011;27689;48.390;10.856;2023-04-03T12:39:36;4.85;;;2.78;;
42000;SDS011;27689;48.390;10.856;2023-04-03T12:45:44;6.07;;;2.67;;
42000;SDS011;27689;48.390;10.856;2023-04-03T12:48:50;4.43;;;2.92;;
42000;SDS011;27689;48.390;10.856;2023-04-03T12:51:42;6.03;;;2.60;;
42000;SDS011;27689;48.390;10.856;2023-04-03T12:54:36;3.65;;;2.50;;
42000;SDS011;27689;48.390;10.856;2023-04-03T12:57:24;3.85;;;2.17;;
42000;SDS011;27689;48.390;10.856;2023-04-03T13:00:28;6.43;;;2.70;;
42000;SDS011;27689;48.390;10.856;2023-04-03T13:03:21;4.25;;;2.55;;
42000;SDS011;27689;48.390;10.856;2023-04-03T13:06:14;5.05;;;2.53;;
42000;SDS011;27689;48.390;10.856;2023-04-03T13:09:02;3.60;;;2.10;;
42000;SDS011;27689;48.390;10.856;2023-04-03T13:11:48;6.15;;;2.58;;
42000;SDS011;27689;48.390;10.856;2023-04-03T13:14:35;2.90;;;2.13;;
42000;SDS011;27689;48.390;10.856;2023-04-03T13:17:20;3.10;;;2.33;;
42000;SDS011;27689;48.390;10.856;2023-04-03T13:20:12;3.25;;;2.00;;
42000;SDS011;27689;48.390;10.856;2023-04-03T13:23:17;2.33;;;1.83;;
42000;SDS011;27689;48.390;10.856;2023-04-03T13:26:04;3.42;;;1.90;;
42000;SDS011;27689;48.390;10.856;2023-04-03T13:28:50;5.53;;;2.20;;
42000;SDS011;27689;48.390;10.856;2023-04-03T13:31:35;3.63;;;2.00;;
42000;SDS011;27689;48.390;10.856;2023-04-03T13:34:21;4.05;;;2.30;;
42000;SDS011;27689;48.390;10.856;2023-04-03T13:37:07;5.18;;;2.53;;
42000;SDS011;27689;48.390;10.856;2023-04-03T13:42:59;5.72;;;2.60;;
42000;SDS011;27689;48.390;10.856;2023-04-03T13:48:42;4.32;;;2.22;;
42000;SDS011;27689;48.390;10.856;2023-04-03T13:51:29;3.67;;;2.10;;
42000;SDS011;27689;48.390;10.856;2023-04-03T13:57:11;4.03;;;1.98;;
42000;SDS011;27689;48.390;10.856;2023-04-03T13:59:57;3.70;;;2.10;;
42000;SDS011;27689;48.390;10.856;2023-04-03T14:02:41;5.05;;;2.35;;
42000;SDS011;27689;48.390;10.856;2023-04-03T14:05:31;3.33;;;2.10;;
42000;SDS011;27689;48.390;10.856;2023-04-03T14:08:16;2.47;;;2.17;;
42000;SDS011;27689;48.390;10.856;2023-04-03T14:11:00;2.25;;;1.90;;
42000;SDS011;27689;48.390;10.856;2023-04-03T14:13:45;3.47;;;2.33;;
42000;SDS011;27689;48.390;10.856;2023-04-03T14:16:31;4.63;;;2.03;;
42000;SDS011;27689;48.390;10.856;2023-04-03T14:19:18;2.50;;;1.90;;
42000;SDS011;27689;48.390;10.856;2023-04-03T14:22:19;6.35;;;1.95;;
42000;SDS011;27689;48.390;10.856;2023-04-03T14:25:12;3.97;;;2.00;;
42000;SDS011;27689;48.390;10.856;2023-04-03T14:27:56;2.85;;;1.45;;
42000;SDS011;27689;48.390;10.856;2023-04-03T14:30:41;5.55;;;1.65;;
42000;SDS011;27689;48.390;10.856;2023-04-03T14:33:25;3.55;;;1.60;;
42000;SDS011;27689;48.390;10.856;2023-04-03T14:36:13;2.78;;;1.63;;
42000;SDS011;27689;48.390;10.856;2023-04-03T14:38:59;3.65;;;1.67;;
42000;SDS011;27689;48.390;10.856;2023-04-03T14:41:45;2.67;;;1.58;;
42000;SDS011;27689;48.390;10.856;2023-04-03T14:44:29;4.47;;;1.80;;
42000;SDS011;27689;48.390;10.856;2023-04-03T14:52:44;2.55;;;1.73;;
42000;SDS011;27689;48.390;10.856;2023-04-03T14:55:29;2.97;;;1.50;;
42000;SDS011;27689;48.390;10.856;2023-04-03T14:58:14;2.80;;;1.60;;
42000;SDS011;27689;48.390;10.856;2023-04-03T15:00:59;2.92;;;1.80;;
42000;SDS011;27689;48.390;10.856;2023-04-03T15:03:43;2.00;;;1.50;;
42000;SDS011;27689;48.390;10.856;2023-04-03T15:06:28;3.25;;;1.67;;
42000;SDS011;27689;48.390;10.856;2023-04-03T15:09:22;2.83;;;1.67;;
42000;SDS011;27689;48.390;10.856;2023-04-03T15:12:08;2.67;;;1.50;;
42000;SDS011;27689;48.390;10.856;2023-04-03T15:14:53;2.78;;;1.65;;
42000;SDS011;27689;48.390;10.856;2023-04-03T15:17:37;3.33;;;2.10;;
42000;SDS011;27689;48.390;10.856;2023-04-03T15:20:23;4.05;;;2.28;;
42000;SDS011;27689;48.390;10.856;2023-04-03T15:23:09;2.05;;;1.70;;
42000;SDS011;27689;48.390;10.856;2023-04-03T15:25:55;3.20;;;1.58;;
42000;SDS011;27689;48.390;10.856;2023-04-03T15:28:40;1.85;;;1.25;;
42000;SDS011;27689;48.390;10.856;2023-04-03T15:31:26;4.10;;;1.58;;
42000;SDS011;27689;48.390;10.856;2023-04-03T15:36:55;2.30;;;1.70;;
42000;SDS011;27689;48.390;10.856;2023-04-03T15:39:42;4.30;;;1.60;;
42000;SDS011;27689;48.390;10.856;2023-04-03T15:42:26;2.33;;;1.73;;
42000;SDS011;27689;48.390;10.856;2023-04-03T15:45:10;2.55;;;1.88;;
42000;SDS011;27689;48.390;10.856;2023-04-03T15:47:55;2.50;;;1.70;;
42000;SDS011;27689;48.390;10.856;2023-04-03T15:50:39;4.20;;;2.70;;
42000;SDS011;27689;48.390;10.856;2023-04-03T15:53:24;3.67;;;1.88;;
42000;SDS011;27689;48.390;10.856;2023-04-03T15:56:08;3.80;;;2.53;;
42000;SDS011;27689;48.390;10.856;2023-04-03T15:58:53;3.35;;;1.80;;
42000;SDS011;27689;48.390;10.856;2023-04-03T16:01:37;3.47;;;1.63;;
42000;SDS011;27689;48.390;10.856;2023-04-03T16:04:23;3.58;;;2.08;;
42000;SDS011;27689;48.390;10.856;2023-04-03T16:07:07;2.42;;;1.60;;
42000;SDS011;27689;48.390;10.856;2023-04-03T16:09:51;2.80;;;1.77;;
42000;SDS011;27689;48.390;10.856;2023-04-03T16:12:36;2.55;;;1.70;;
42000;SDS011;27689;48.390;10.856;2023-04-03T16:15:20;2.35;;;1.70;;
42000;SDS011;27689;48.390;10.856;2023-04-03T16:18:05;2.22;;;1.50;;
42000;SDS011;27689;48.390;10.856;2023-04-03T16:23:33;2.28;;;1.75;;
42000;SDS011;27689;48.390;10.856;2023-04-03T16:26:18;2.10;;;1.83;;
42000;SDS011;27689;48.390;10.856;2023-04-03T16:29:02;2.97;;;1.50;;
42000;SDS011;27689;48.390;10.856;2023-04-03T16:31:46;4.63;;;1.83;;
42000;SDS011;27689;48.390;10.856;2023-04-03T16:34:30;8.55;;;6.10;;
42000;SDS011;27689;48.390;10.856;2023-04-03T16:37:16;4.13;;;3.30;;
42000;SDS011;27689;48.390;10.856;2023-04-03T16:40:00;6.85;;;3.42;;
42000;SDS011;27689;48.390;10.856;2023-04-03T16:42:44;3.90;;;1.95;;
42000;SDS011;27689;48.390;10.856;2023-04-03T16:45:29;3.22;;;2.55;;
42000;SDS011;27689;48.390;10.856;2023-04-03T16:48:13;3.25;;;1.80;;
42000;SDS011;27689;48.390;10.856;2023-04-03T16:50:57;2.47;;;1.77;;
42000;SDS011;27689;48.390;10.856;2023-04-03T16:53:41;2.97;;;1.60;;
42000;SDS011;27689;48.390;10.856;2023-04-03T16:56:26;4.03;;;1.80;;
42000;SDS011;27689;48.390;10.856;2023-04-03T16:59:10;2.78;;;1.65;;
42000;SDS011;27689;48.390;10.856;2023-04-03T17:01:54;2.33;;;1.75;;
42000;SDS011;27689;48.390;10.856;2023-04-03T17:04:38;4.03;;;1.92;;
42000;SDS011;27689;48.390;10.856;2023-04-03T17:07:23;4.88;;;1.90;;
42000;SDS011;27689;48.390;10.856;2023-04-03T17:10:08;3.75;;;2.00;;
42000;SDS011;27689;48.390;10.856;2023-04-03T17:12:54;3.90;;;2.75;;
42000;SDS011;27689;48.390;10.856;2023-04-03T17:15:38;3.78;;;2.30;;
42000;SDS011;27689;48.390;10.856;2023-04-03T17:18:23;10.18;;;3.45;;
42000;SDS011;27689;48.390;10.856;2023-04-03T17:21:06;4.00;;;2.17;;
42000;SDS011;27689;48.390;10.856;2023-04-03T17:23:52;3.65;;;1.95;;
42000;SDS011;27689;48.390;10.856;2023-04-03T17:26:41;3.05;;;1.83;;
42000;SDS011;27689;48.390;10.856;2023-04-03T17:29:25;4.18;;;2.25;;
42000;SDS011;27689;48.390;10.856;2023-04-03T17:32:09;2.50;;;2.03;;
42000;SDS011;27689;48.390;10.856;2023-04-03T17:34:53;2.90;;;2.10;;
42000;SDS011;27689;48.390;10.856;2023-04-03T17:37:37;3.40;;;2.08;;
42000;SDS011;27689;48.390;10.856;2023-04-03T17:40:21;4.67;;;2.70;;
42000;SDS011;27689;48.390;10.856;2023-04-03T17:43:05;2.55;;;2.13;;
42000;SDS011;27689;48.390;10.856;2023-04-03T17:45:49;2.53;;;1.80;;
42000;SDS011;27689;48.390;10.856;2023-04-03T17:48:34;3.30;;;2.05;;
42000;SDS011;27689;48.390;10.856;2023-04-03T17:51:21;3.47;;;2.22;;
42000;SDS011;27689;48.390;10.856;2023-04-03T17:54:06;5.30;;;2.05;;
42000;SDS011;27689;48.390;10.856;2023-04-03T17:56:50;2.33;;;1.80;;